Tiempo atmosférico en la estación meteorológica de Tacoronte, Santa Cruz de Tenerife (310 m.)



Fecha
DESCASC
Temp. máxima en grados centígrados (hora)
DESCASC
Temp. mínima en grados centígrados (hora)
DESCASC
Temp. media en grados centígrados
DESCASC
Racha de viento máxima en m/sg (hora)
DESCASC
Velocidad máxima media en intervalos de 10 minutos(hora)
DESCASC
Precipitaciones diarias en mm
DESCASC
Precipitaciones de 00:00 a 06:00 en mm
DESCASC
Precipitaciones de 06:00 a 12:00 en mm
DESCASC
Precipitaciones de 12:00 a 18:00 en mm
DESCASC
Precipitaciones de 18:00 a 24:00 en mm
DESCASC
14-12-2019 20.1 (15:30) 13.3 (05:30) 16.7 6.94 (15:20) 4.72 (15:20) 0 0 0 0 0
13-12-2019 18.4 (11:40) 14.3 (05:00) 16.3 9.72 (11:20) 5.83 (11:10) 0 0 0 0 0
12-12-2019 19 (14:40) 12.7 (04:20) 15.8 11.39 (17:30) 7.5 (17:20) 0 0 0 0 0
11-12-2019 20.1 (12:10) 13.6 (00:00) 16.9 11.11 (13:40) 7.5 (14:50) 0 0 0 0 0
10-12-2019 21.2 (11:50) 12.7 (03:50) 17 10.83 (10:00) 6.67 (15:50) 0 0 0 0 0
09-12-2019 -- (--) -- (--) -- -- (--) -- (--) -- -- -- 0 0
08-12-2019 -- (--) -- (--) -- -- (--) -- (--) -- -- -- -- --
07-12-2019 -- (--) -- (--) -- -- (--) -- (--) -- -- -- -- --
06-12-2019 -- (--) -- (--) -- -- (--) -- (--) -- -- -- -- --
05-12-2019 -- (--) -- (--) -- -- (--) -- (--) -- 6.2 1.6 -- --
04-12-2019 19.6 (15:20) 14.8 (00:30) 17.2 10.83 (23:00) 5.83 (23:50) 1.2 0 0.2 0 1
03-12-2019 19.4 (12:50) 13.7 (00:00) 16.5 6.39 (02:10) 3.61 (14:50) 8.4 2.8 5.4 0 0.2
02-12-2019 20.5 (12:00) 14.4 (00:00) 17.4 8.61 (23:00) 4.72 (23:10) 0 0 0 0 0
01-12-2019 21.3 (13:50) 13.4 (00:00) 17.3 10.28 (15:50) 6.94 (15:50) 0 0 0 0 0
30-11-2019 23.3 (12:20) 15.3 (00:00) 19.3 5.83 (04:10) 3.33 (03:30) 0 0 0 0 0
29-11-2019 25.5 (14:10) 16 (00:00) 20.8 7.5 (03:40) 5.28 (07:10) 0 0 0 0 0
28-11-2019 21.1 (12:40) 13.5 (07:10) 17.3 6.94 (09:50) 4.17 (03:10) 0 0 0 0 0
27-11-2019 21 (12:20) 14.8 (00:00) 17.9 10 (11:30) 6.11 (11:30) 0 0 0 0 0
26-11-2019 19.6 (11:10) 14.8 (00:00) 17.2 6.94 (20:50) 4.44 (16:30) 0 0 0 0 0
25-11-2019 19.4 (15:00) 15.1 (08:20) 17.3 6.67 (15:50) 4.44 (16:50) 0 0 0 0 0
24-11-2019 21.2 (13:10) 15.6 (00:00) 18.4 6.39 (14:30) 4.44 (13:20) 1.4 0.4 1 0 0
23-11-2019 22.4 (13:00) 16.9 (00:00) 19.6 4.72 (06:10) 3.61 (21:50) 1.4 0.4 1 0 0
22-11-2019 22.3 (14:30) 16.5 (00:00) 19.4 7.22 (00:40) 3.61 (01:50) 9.8 8.8 1 0 0
21-11-2019 22.3 (12:40) 16.3 (00:00) 19.3 7.78 (21:30) 4.44 (21:40) 0 0 0 0 0
20-11-2019 21.2 (13:50) 14.4 (07:10) 17.8 7.22 (16:10) 3.89 (16:40) 0 0 0 0 0
19-11-2019 21 (13:10) 14.2 (00:00) 17.6 4.72 (14:40) 3.06 (14:40) 0.4 0.4 0 0 0
18-11-2019 21.2 (12:00) 15.1 (00:00) 18.2 9.44 (15:20) 6.39 (15:20) 0 0 0 0 0
17-11-2019 18.8 (11:30) 13.8 (00:00) 16.3 10 (13:00) 6.67 (13:10) 2.4 2 0.2 0 0.2
16-11-2019 20.2 (16:00) 14.7 (00:00) 17.5 10.28 (14:30) 6.39 (14:30) 0.4 0.2 0 0 0.2

Gráficas

Temp. máximas Temp. mínimas Temp. medias Precipitaciones Rachas de viento máximas Velocidades máximas media en intervalos de 10 minutos

Datos horarios

Fecha y hora oficial Temperatura (ºC) Velocidad del viento (km/h) Dirección del viento Racha (km/h) Dirección de racha Precipitación (mm) Presión (hPa) Tendencia (hPa) Humedad (%)
2019-12-15 23:00:00 15.5 6 Sudoeste 16 Sudoeste 0 -- -- 90
2019-12-15 22:00:00 16 9 Sudoeste 21 Sudoeste 0 -- -- 89
2019-12-15 21:00:00 16.2 6 Oeste 18 Oeste 0 -- -- 92
2019-12-15 20:00:00 16.1 11 Sudoeste 20 Sudoeste 0 -- -- 88
2019-12-15 19:00:00 16.5 5 Oeste 13 Noroeste 0 -- -- 89
2019-12-15 18:00:00 16.7 4 Sudoeste 12 Sudoeste 0 -- -- 90
2019-12-15 17:00:00 17.3 6 Oeste 14 Oeste 0 -- -- 85
2019-12-15 16:00:00 19.1 8 Oeste 18 Sudoeste 0 -- -- 75
2019-12-15 15:00:00 19.7 9 Oeste 14 Oeste 0 -- -- 73
2019-12-15 14:00:00 19.3 6 Oeste 15 Noroeste 0 -- -- 75
2019-12-15 13:00:00 20.3 6 Oeste 12 Oeste 0 -- -- 67
2019-12-15 12:00:00 20.1 8 Oeste 12 Oeste 0 -- -- 70
2019-12-15 11:00:00 17.7 3 Oeste 7 Oeste 0 -- -- 78
2019-12-15 10:00:00 17.4 3 Sudeste 12 Este 0 -- -- 75
2019-12-15 09:00:00 15.6 10 Este 14 Este 0 -- -- 85
2019-12-15 08:00:00 15.1 5 Sur 10 Sudoeste 0 -- -- 87
2019-12-15 07:00:00 14.7 5 Sur 17 Sudeste 0 -- -- 83
2019-12-15 06:00:00 14.6 10 Sudeste 15 Sudeste 0 -- -- 83
2019-12-15 05:00:00 15.1 10 Sudeste 15 Sudeste 0 -- -- 84
2019-12-15 04:00:00 14.9 6 Sur 14 Este 0 -- -- 79
2019-12-15 03:00:00 15.1 11 Este 14 Este 0 -- -- 78
2019-12-15 02:00:00 15 9 Sudeste 15 Sudeste 0 -- -- 79
2019-12-15 01:00:00 15.6 8 Sudeste 15 Sudeste 0 -- -- 79
2019-12-15 00:00:00 15.5 12 Este 15 Este 0 -- -- 88
2019-12-14 23:00:00 15.7 7 Sudeste 15 Sudeste 0 -- -- 81
2019-12-14 22:00:00 15 11 Sudeste 17 Sudeste 0 -- -- 77
2019-12-14 21:00:00 15.6 8 Sudeste 14 Este 0 -- -- 80
2019-12-14 20:00:00 16.2 6 Este 9 Este 0 -- -- 87
2019-12-14 19:00:00 16.4 4 Nordeste 9 Nordeste 0 -- -- 88
2019-12-14 18:00:00 16.7 7 Nordeste 14 Nordeste 0 -- -- 86
2019-12-14 17:00:00 17.6 10 Nordeste 16 Nordeste 0 -- -- 84
2019-12-14 16:00:00 18.4 9 Norte 25 Nordeste 0 -- -- 77
2019-12-14 15:00:00 18.4 12 Nordeste 22 Nordeste 0 -- -- 74
2019-12-14 14:00:00 18.7 14 Nordeste 19 Nordeste 0 -- -- 80
2019-12-14 13:00:00 19 6 Nordeste 17 Norte 0 -- -- 81
2019-12-14 12:00:00 18.7 9 Nordeste 18 Nordeste 0 -- -- 71
2019-12-14 11:00:00 19.1 8 Nordeste 17 Nordeste 0 -- -- 72
2019-12-14 10:00:00 16.9 9 Nordeste 15 Este 0 -- -- 79
2019-12-14 09:00:00 15.2 10 Este 17 Este 0 -- -- 85
2019-12-14 08:00:00 13.7 10 Sudeste 12 Sudeste 0 -- -- 88
2019-12-14 07:00:00 14.2 6 Sudeste 13 Sudeste 0 -- -- 87
2019-12-14 06:00:00 13.8 10 Sudeste 15 Sudeste 0 -- -- 83
2019-12-14 05:00:00 13.8 10 Sudeste 18 Sudeste 0 -- -- 84
2019-12-14 04:00:00 15.1 14 Sudeste 23 Este 0 -- -- 82
2019-12-14 03:00:00 14.9 12 Sudeste 18 Sudeste 0 -- -- 85
2019-12-14 02:00:00 15.3 11 Este 22 Este 0 -- -- 76
2019-12-14 01:00:00 15.5 14 Sudeste 23 Este 0 -- -- 77
2019-12-14 00:00:00 15.4 10 Este 22 Sudeste 0 -- -- 79
2019-12-13 23:00:00 15.3 11 Este 23 Este 0 -- -- 79
2019-12-13 22:00:00 14.5 13 Este 25 Nordeste 0 -- -- 94
2019-12-13 21:00:00 15.1 12 Este 24 Norte 0 -- -- 88
2019-12-13 20:00:00 15.8 7 Este 16 Este 0 -- -- 75
2019-12-13 19:00:00 15.5 9 Este 15 Este 0 -- -- 73
2019-12-13 18:00:00 16.1 6 Este 28 Este 0 -- -- 74
2019-12-13 17:00:00 16.4 18 Nordeste 27 Nordeste 0 -- -- 67
2019-12-13 16:00:00 16.7 15 Nordeste 28 Este 0 -- -- 74
2019-12-13 15:00:00 17.1 16 Nordeste 27 Este 0 -- -- 71
2019-12-13 14:00:00 17.3 16 Nordeste 32 Nordeste 0 -- -- 68
2019-12-13 13:00:00 17.9 17 Nordeste 28 Nordeste 0 -- -- 68
2019-12-13 12:00:00 17.8 15 Nordeste 35 Nordeste 0 -- -- 67
2019-12-13 11:00:00 16.3 20 Nordeste 33 Nordeste 0 -- -- 67
2019-12-13 10:00:00 15.8 13 Este 29 Nordeste 0 -- -- 73
2019-12-13 09:00:00 15.1 11 Este 31 Este 0 -- -- 73
2019-12-13 08:00:00 14.6 15 Este 27 Este 0 -- -- 74
2019-12-13 07:00:00 14.6 15 Nordeste 28 Este 0 -- -- 73
2019-12-13 06:00:00 14.7 13 Este 29 Este 0 -- -- 73
2019-12-13 05:00:00 14.3 15 Este 32 Este 0 -- -- 71
2019-12-13 04:00:00 14.7 17 Este 31 Este 0 -- -- 69
2019-12-13 03:00:00 14.8 12 Este 29 Este 0 -- -- 72
2019-12-13 02:00:00 14.8 12 Este 30 Este 0 -- -- 76
2019-12-13 01:00:00 14.9 12 Este 30 Este 0 -- -- 70
2019-12-13 00:00:00 15.2 15 Este 35 Este 0 -- -- 71
2019-12-12 23:00:00 15.1 17 Este 31 Este 0 -- -- 68
2019-12-12 22:00:00 15.1 10 Este 26 Este 0 -- -- 72
2019-12-12 21:00:00 15.4 11 Este 39 Este 0 -- -- 71
2019-12-12 20:00:00 15.3 15 Este 28 Nordeste 0 -- -- 77
2019-12-12 19:00:00 15.5 17 Este 39 Este 0 -- -- 77
2019-12-12 18:00:00 15.8 22 Nordeste 41 Este 0 -- -- 80
2019-12-12 17:00:00 16.4 24 Nordeste 37 Este 0 -- -- 88
2019-12-12 16:00:00 16.9 19 Este 28 Este 0 -- -- 84
2019-12-12 15:00:00 18.1 18 Nordeste 31 Nordeste 0 -- -- 79
2019-12-12 14:00:00 17.5 21 Nordeste 32 Nordeste 0 -- -- 83
2019-12-12 13:00:00 18.6 14 Este 30 Nordeste 0 -- -- 77
2019-12-12 12:00:00 17.5 19 Nordeste 31 Nordeste 0 -- -- 83
2019-12-12 11:00:00 17.5 18 Nordeste 27 Este 0 -- -- 82
2019-12-12 10:00:00 17.2 13 Este 26 Este 0 -- -- 79
2019-12-12 09:00:00 16.4 13 Este 28 Este 0 -- -- 77
2019-12-12 08:00:00 15.3 16 Este 33 Este 0 -- -- 80
2019-12-12 07:00:00 13.6 15 Sudeste 22 Sudeste 0 -- -- 80
2019-12-12 06:00:00 13.7 14 Sudeste 23 Sudeste 0 -- -- 80
2019-12-12 05:00:00 13 15 Sudeste 20 Sudeste 0 -- -- 82
2019-12-12 04:00:00 13 13 Sudeste 19 Sudeste 0 -- -- 83
2019-12-12 03:00:00 13.2 14 Sudeste 21 Este 0 -- -- 82
2019-12-12 02:00:00 13.2 15 Sudeste 19 Sudeste 0 -- -- 84
2019-12-12 01:00:00 13.9 13 Sudeste 19 Sudeste 0 -- -- 82
2019-12-12 00:00:00 14.4 12 Este 21 Este 0 -- -- 83
2019-12-11 23:00:00 14.1 13 Sudeste 24 Este 0 -- -- 81
2019-12-11 22:00:00 14 10 Sudeste 20 Nordeste 0 -- -- 81
2019-12-11 21:00:00 14.1 12 Sudeste 22 Este 0 -- -- 78
2019-12-11 20:00:00 14.9 14 Sudeste 24 Este 0 -- -- 77
2019-12-11 19:00:00 14.5 12 Este 27 Nordeste 0 -- -- 82
2019-12-11 18:00:00 15.8 19 Nordeste 37 Nordeste 0 -- -- 80
2019-12-11 17:00:00 17.6 21 Nordeste 37 Nordeste 0 -- -- 76
2019-12-11 16:00:00 18.4 24 Nordeste 38 Nordeste 0 -- -- 76
2019-12-11 15:00:00 18.6 24 Nordeste 39 Nordeste 0 -- -- 77
2019-12-11 14:00:00 18.4 25 Nordeste 40 Nordeste 0 -- -- 77
2019-12-11 13:00:00 18.7 23 Nordeste 33 Nordeste 0 -- -- 75
2019-12-11 12:00:00 19.9 14 Este 29 Este 0 -- -- 71
2019-12-11 11:00:00 19 18 Este 28 Este 0 -- -- 73
2019-12-11 10:00:00 18.1 13 Este 27 Este 0 -- -- 75
2019-12-11 09:00:00 17 17 Este 28 Este 0 -- -- 76
2019-12-11 08:00:00 16.2 11 Este 26 Este 0 -- -- 80
2019-12-11 07:00:00 15.9 13 Este 24 Este 0 -- -- 80
2019-12-11 06:00:00 16.3 12 Este 15 Este 0 -- -- 87
2019-12-11 05:00:00 16.6 10 Este 18 Este 0 -- -- 81
2019-12-11 04:00:00 16.4 13 Este 21 Este 0 -- -- 85
2019-12-11 03:00:00 16.5 13 Este 20 Este 0 -- -- 83
2019-12-11 02:00:00 16.4 5 Este 21 Este 0 -- -- 85
2019-12-11 01:00:00 16.2 13 Este 23 Este 0 -- -- 88
2019-12-11 00:00:00 16.4 12 Este 18 Este 0 -- -- 87
2019-12-10 23:00:00 16.6 12 Este 19 Este 0 -- -- 83
2019-12-10 22:00:00 16.4 16 Este 25 Este 0 -- -- 82
2019-12-10 21:00:00 16 12 Este 24 Este 0 -- -- 84
2019-12-10 20:00:00 15.3 13 Este 24 Este 0 -- -- 84
2019-12-10 19:00:00 16.2 17 Este 27 Nordeste 0 -- -- 84
2019-12-10 18:00:00 17 20 Este 35 Nordeste 0 -- -- 81
2019-12-10 17:00:00 18.6 21 Nordeste 35 Nordeste 0 -- -- 76
2019-12-10 16:00:00 19.2 24 Nordeste 35 Este 0 -- -- 76
2019-12-10 15:00:00 19.9 13 Norte 28 Nordeste 0 -- -- 73
2019-12-10 14:00:00 19.8 9 Noroeste 29 Norte 0 -- -- 60
2019-12-10 13:00:00 20.3 6 Oeste 14 Oeste 0 -- -- 60
2019-12-10 12:00:00 20.4 4 Oeste 26 Este 0 -- -- 56
2019-12-10 11:00:00 19.4 13 Este 35 Este 0 -- -- 64
2019-12-10 10:00:00 17.2 23 Este 39 Este 0 -- -- 74
2019-12-10 09:00:00 15.5 14 Este 30 Sudeste 0 -- -- 79
2019-12-10 08:00:00 14.6 16 Este 24 Sudeste 0 -- -- 82
2019-12-10 07:00:00 13.8 14 Este 25 Este 0 -- -- 83
2019-12-10 06:00:00 13.4 18 Este 26 Este 0 -- -- 84
2019-12-10 05:00:00 13.3 17 Este 23 Este 0 -- -- 84
2019-12-10 04:00:00 13.2 14 Sudeste 21 Sudeste 0 -- -- 84
2019-12-10 03:00:00 13 17 Este 21 Este 0 -- -- 85
2019-12-10 02:00:00 13.7 17 Este 21 Este 0 -- -- 81
2019-12-10 01:00:00 13.3 15 Este 20 Sudeste 0 -- -- 84
2019-12-10 00:00:00 13.4 14 Este 21 Sudeste 0 -- -- 82
2019-12-09 23:00:00 13.5 15 Este 21 Este 0 -- -- 82
2019-12-09 22:00:00 13.4 14 Este 22 Sudeste 0 -- -- 80
2019-12-09 21:00:00 13.6 16 Sudeste 20 Este 0 -- -- 79
2019-12-09 20:00:00 14.1 15 Este 22 Sudeste 0 -- -- 78
2019-12-09 19:00:00 15.1 14 Este 26 Este 0 -- -- 76
2019-12-09 18:00:00 16.8 15 Este 21 Sudeste 0 -- -- 74
2019-12-09 17:00:00 19.7 11 Sudeste 30 Este 0 -- -- 60
2019-12-09 16:00:00 19.9 18 Sudeste 35 Este 0 -- -- 62
2019-12-09 15:00:00 20.1 18 Sudeste 33 Este 0 -- -- 60
2019-12-09 14:00:00 19.9 21 Este 37 Este 0 -- -- 61
2019-12-09 13:00:00 20.1 18 Este 35 Sudeste 0 -- -- 61
2019-12-09 12:00:00 19.5 21 Este 37 Este 0 -- -- 63
2019-12-09 11:00:00 18.3 18 Este 32 Este 0 -- -- 68
2019-12-09 10:00:00 -- -- -- -- -- -- -- -- --
2019-12-09 09:00:00 -- -- -- -- -- -- -- -- --
2019-12-09 08:00:00 -- -- -- -- -- -- -- -- --
2019-12-09 07:00:00 -- -- -- -- -- -- -- -- --
2019-12-09 06:00:00 -- -- -- -- -- -- -- -- --
2019-12-09 05:00:00 -- -- -- -- -- -- -- -- --
2019-12-09 04:00:00 -- -- -- -- -- -- -- -- --
2019-12-09 03:00:00 -- -- -- -- -- -- -- -- --
2019-12-09 02:00:00 -- -- -- -- -- -- -- -- --
2019-12-09 01:00:00 -- -- -- -- -- -- -- -- --
2019-12-09 00:00:00 -- -- -- -- -- -- -- -- --
2019-12-08 23:00:00 -- -- -- -- -- -- -- -- --
2019-12-08 22:00:00 -- -- -- -- -- -- -- -- --
2019-12-08 21:00:00 -- -- -- -- -- -- -- -- --
2019-12-08 20:00:00 -- -- -- -- -- -- -- -- --
2019-12-08 19:00:00 -- -- -- -- -- -- -- -- --
2019-12-08 18:00:00 -- -- -- -- -- -- -- -- --
2019-12-08 17:00:00 -- -- -- -- -- -- -- -- --
2019-12-08 16:00:00 -- -- -- -- -- -- -- -- --
2019-12-08 15:00:00 -- -- -- -- -- -- -- -- --
2019-12-08 14:00:00 -- -- -- -- -- -- -- -- --
2019-12-08 13:00:00 -- -- -- -- -- -- -- -- --
2019-12-08 12:00:00 -- -- -- -- -- -- -- -- --
2019-12-08 11:00:00 -- -- -- -- -- -- -- -- --
2019-12-08 10:00:00 -- -- -- -- -- -- -- -- --
2019-12-08 09:00:00 -- -- -- -- -- -- -- -- --
2019-12-08 08:00:00 -- -- -- -- -- -- -- -- --
2019-12-08 07:00:00 -- -- -- -- -- -- -- -- --
2019-12-08 06:00:00 -- -- -- -- -- -- -- -- --
2019-12-08 05:00:00 -- -- -- -- -- -- -- -- --
2019-12-08 04:00:00 -- -- -- -- -- -- -- -- --
2019-12-08 03:00:00 -- -- -- -- -- -- -- -- --
2019-12-08 02:00:00 -- -- -- -- -- -- -- -- --
2019-12-08 01:00:00 -- -- -- -- -- -- -- -- --
2019-12-08 00:00:00 -- -- -- -- -- -- -- -- --
2019-12-07 23:00:00 -- -- -- -- -- -- -- -- --
2019-12-07 22:00:00 -- -- -- -- -- -- -- -- --
2019-12-07 21:00:00 -- -- -- -- -- -- -- -- --
2019-12-07 20:00:00 -- -- -- -- -- -- -- -- --
2019-12-07 19:00:00 -- -- -- -- -- -- -- -- --
2019-12-07 18:00:00 -- -- -- -- -- -- -- -- --
2019-12-07 17:00:00 -- -- -- -- -- -- -- -- --
2019-12-07 16:00:00 -- -- -- -- -- -- -- -- --
2019-12-07 15:00:00 -- -- -- -- -- -- -- -- --
2019-12-07 14:00:00 -- -- -- -- -- -- -- -- --
2019-12-07 13:00:00 -- -- -- -- -- -- -- -- --
2019-12-07 12:00:00 -- -- -- -- -- -- -- -- --
2019-12-07 11:00:00 -- -- -- -- -- -- -- -- --
2019-12-07 10:00:00 -- -- -- -- -- -- -- -- --
2019-12-07 09:00:00 -- -- -- -- -- -- -- -- --
2019-12-07 08:00:00 -- -- -- -- -- -- -- -- --
2019-12-07 07:00:00 -- -- -- -- -- -- -- -- --
2019-12-07 06:00:00 -- -- -- -- -- -- -- -- --
2019-12-07 05:00:00 -- -- -- -- -- -- -- -- --
2019-12-07 04:00:00 -- -- -- -- -- -- -- -- --
2019-12-07 03:00:00 -- -- -- -- -- -- -- -- --
2019-12-07 02:00:00 -- -- -- -- -- -- -- -- --
2019-12-07 01:00:00 -- -- -- -- -- -- -- -- --
2019-12-07 00:00:00 -- -- -- -- -- -- -- -- --
2019-12-06 23:00:00 -- -- -- -- -- -- -- -- --
2019-12-06 22:00:00 -- -- -- -- -- -- -- -- --
2019-12-06 21:00:00 -- -- -- -- -- -- -- -- --
2019-12-06 20:00:00 -- -- -- -- -- -- -- -- --
2019-12-06 19:00:00 -- -- -- -- -- -- -- -- --
2019-12-06 18:00:00 -- -- -- -- -- -- -- -- --
2019-12-06 17:00:00 -- -- -- -- -- -- -- -- --
2019-12-06 16:00:00 -- -- -- -- -- -- -- -- --
2019-12-06 15:00:00 -- -- -- -- -- -- -- -- --
2019-12-06 14:00:00 -- -- -- -- -- -- -- -- --
2019-12-06 13:00:00 -- -- -- -- -- -- -- -- --
2019-12-06 12:00:00 -- -- -- -- -- -- -- -- --
2019-12-06 11:00:00 -- -- -- -- -- -- -- -- --
2019-12-06 10:00:00 -- -- -- -- -- -- -- -- --
2019-12-06 09:00:00 -- -- -- -- -- -- -- -- --
2019-12-06 08:00:00 -- -- -- -- -- -- -- -- --
2019-12-06 07:00:00 -- -- -- -- -- -- -- -- --
2019-12-06 06:00:00 -- -- -- -- -- -- -- -- --
2019-12-06 05:00:00 -- -- -- -- -- -- -- -- --
2019-12-06 04:00:00 -- -- -- -- -- -- -- -- --
2019-12-06 03:00:00 -- -- -- -- -- -- -- -- --
2019-12-06 02:00:00 -- -- -- -- -- -- -- -- --
2019-12-06 01:00:00 -- -- -- -- -- -- -- -- --
2019-12-06 00:00:00 -- -- -- -- -- -- -- -- --
2019-12-05 23:00:00 -- -- -- -- -- -- -- -- --
2019-12-05 22:00:00 -- -- -- -- -- -- -- -- --
2019-12-05 21:00:00 -- -- -- -- -- -- -- -- --
2019-12-05 20:00:00 -- -- -- -- -- -- -- -- --
2019-12-05 19:00:00 -- -- -- -- -- -- -- -- --
2019-12-05 18:00:00 -- -- -- -- -- -- -- -- --
2019-12-05 17:00:00 15.7 15 Norte 35 Norte 0.4 -- -- 74
2019-12-05 16:00:00 16.4 19 Noroeste 35 Norte 0 -- -- 70
2019-12-05 15:00:00 16 15 Noroeste 32 Noroeste 0 -- -- 72
2019-12-05 14:00:00 15 9 Sudoeste 49 Norte 0.6 -- -- 79
2019-12-05 13:00:00 15.6 18 Noroeste 43 Noroeste 0 -- -- 83
2019-12-05 12:00:00 15.5 8 Oeste 28 Noroeste 1 -- -- 85
2019-12-05 11:00:00 14.5 13 Noroeste 34 Noroeste 0.4 -- -- 89
2019-12-05 10:00:00 15.2 19 Noroeste 39 Noroeste 0.2 -- -- 84
2019-12-05 09:00:00 15.5 18 Noroeste 38 Noroeste 0 -- -- 79
2019-12-05 08:00:00 15.6 19 Noroeste 36 Norte 0 -- -- 75
2019-12-05 07:00:00 15.5 17 Norte 34 Norte 0 -- -- 68
2019-12-05 06:00:00 15.3 16 Norte 29 Noroeste 0 -- -- 75
2019-12-05 05:00:00 15.2 17 Norte 33 Norte 0 -- -- 79
2019-12-05 04:00:00 14.4 23 Noroeste 41 Noroeste 0.6 -- -- 89
2019-12-05 03:00:00 15.9 20 Noroeste 43 Noroeste 0 -- -- 70
2019-12-05 02:00:00 15.8 21 Norte 39 Noroeste 0 -- -- 82
2019-12-05 01:00:00 14.7 16 Norte 41 Noroeste 5.6 -- -- 99
2019-12-05 00:00:00 15.2 11 Norte 36 Noroeste 0.8 -- -- 98
2019-12-04 23:00:00 17.6 18 Noroeste 39 Noroeste 0 -- -- 72
2019-12-04 22:00:00 16.9 16 Sudoeste 32 Sudoeste 0 -- -- 78
2019-12-04 21:00:00 16.1 11 Oeste 33 Noroeste 0.2 -- -- 86
2019-12-04 20:00:00 17 15 Noroeste 30 Noroeste 0 -- -- 80
2019-12-04 19:00:00 17 13 Noroeste 28 Noroeste 0 -- -- 75
2019-12-04 18:00:00 17.2 18 Noroeste 30 Noroeste 0 -- -- 75
2019-12-04 17:00:00 17.7 15 Noroeste 31 Noroeste 0 -- -- 72
2019-12-04 16:00:00 17.7 14 Noroeste 26 Oeste 0 -- -- 74
2019-12-04 15:00:00 19.2 9 Noroeste 21 Oeste 0 -- -- 71
2019-12-04 14:00:00 17.8 10 Noroeste 24 Noroeste 0 -- -- 77
2019-12-04 13:00:00 18.3 14 Noroeste 25 Noroeste 0 -- -- 71
2019-12-04 12:00:00 18.7 10 Noroeste 20 Noroeste 0 -- -- 66
2019-12-04 11:00:00 18 13 Noroeste 23 Noroeste 0 -- -- 60
2019-12-04 10:00:00 17.7 6 Oeste 20 Sudoeste 0 -- -- 57
2019-12-04 09:00:00 16.7 8 Sudoeste 14 Sudoeste 0 -- -- 65
2019-12-04 08:00:00 15.5 8 Sur 15 Sudoeste 0.2 -- -- 81
2019-12-04 07:00:00 15.4 4 Sur 9 Sur 0 -- -- 79
2019-12-04 06:00:00 15.7 5 Sudoeste 15 Noroeste 0 -- -- 78
2019-12-04 05:00:00 16.2 7 Noroeste 12 Noroeste 0 -- -- 76
2019-12-04 04:00:00 16 6 Noroeste 13 Noroeste 0 -- -- 76
2019-12-04 03:00:00 15.6 4 Oeste 12 Noroeste 0 -- -- 82
2019-12-04 02:00:00 15.8 6 Noroeste 12 Noroeste 0 -- -- 80
2019-12-04 01:00:00 15.3 3 Sudeste 8 Sur 0 -- -- 83
2019-12-04 00:00:00 15.6 3 Oeste 14 Sur 0 -- -- 79
2019-12-03 23:00:00 15.2 6 Sudoeste 17 Sudoeste 0 -- -- 81
2019-12-03 22:00:00 14.5 5 Este 19 Nordeste 0.2 -- -- 89
2019-12-03 21:00:00 16.5 11 Noroeste 19 Noroeste 0 -- -- 75
2019-12-03 20:00:00 16.1 6 Noroeste 16 Norte 0 -- -- 75
2019-12-03 19:00:00 16.2 6 Noroeste 15 Oeste 0 -- -- 77
2019-12-03 18:00:00 16.7 6 Norte 15 Noroeste 0 -- -- 77
2019-12-03 17:00:00 17.4 9 Noroeste 17 Norte 0 -- -- 71
2019-12-03 16:00:00 17.8 8 Noroeste 18 Norte 0 -- -- 72
2019-12-03 15:00:00 17.4 11 Norte 23 Norte 0 -- -- 71
2019-12-03 14:00:00 17.6 12 Noroeste 20 Norte 0 -- -- 71
2019-12-03 13:00:00 18.4 12 Noroeste 21 Noroeste 0 -- -- 66
2019-12-03 12:00:00 18.8 10 Noroeste 20 Noroeste 0 -- -- 65
2019-12-03 11:00:00 17.3 9 Noroeste 16 Noroeste 0 -- -- 78
2019-12-03 10:00:00 15.9 6 Noroeste 15 Oeste 0 -- -- 81
2019-12-03 09:00:00 14.2 6 Sudoeste 16 Sudoeste 0.2 -- -- 94
2019-12-03 08:00:00 13.7 8 Sudoeste 22 Oeste 5.2 -- -- 96
2019-12-03 07:00:00 15.2 5 Oeste 23 Sudoeste 0 -- -- 80
2019-12-03 06:00:00 14.8 8 Sudoeste 18 Oeste 1 -- -- 92
2019-12-03 05:00:00 14.8 5 Noroeste 16 Sudoeste 0 -- -- 87
2019-12-03 04:00:00 14.4 7 Sudoeste 17 Oeste 0 -- -- 91
2019-12-03 03:00:00 14.2 8 Noroeste 23 Oeste 1.6 -- -- 95
2019-12-03 02:00:00 15.1 9 Sudoeste 19 Sudoeste 0.2 -- -- 80
2019-12-03 01:00:00 14.5 12 Noroeste 22 Oeste 0 -- -- 94
2019-12-03 00:00:00 14.8 8 Noroeste 30 Norte 0 -- -- 92
2019-12-02 23:00:00 15.3 17 Norte 31 Norte 0 -- -- 92
2019-12-02 22:00:00 16.5 13 Noroeste 30 Noroeste 0 -- -- 83
2019-12-02 21:00:00 16.5 11 Noroeste 23 Norte 0 -- -- 85
2019-12-02 20:00:00 16.4 12 Norte 23 Noroeste 0 -- -- 85
2019-12-02 19:00:00 16.2 4 Oeste 23 Noroeste 0 -- -- 84
2019-12-02 18:00:00 17.1 13 Noroeste 28 Noroeste 0 -- -- 81
2019-12-02 17:00:00 17.4 13 Noroeste 23 Noroeste 0 -- -- 72
2019-12-02 16:00:00 17.8 11 Noroeste 23 Noroeste 0 -- -- 70
2019-12-02 15:00:00 17.7 9 Noroeste 20 Norte 0 -- -- 72
2019-12-02 14:00:00 17.7 13 Norte 25 Noroeste 0 -- -- 77
2019-12-02 13:00:00 18.6 10 Noroeste 17 Noroeste 0 -- -- 79
2019-12-02 12:00:00 20.5 10 Noroeste 18 Noroeste 0 -- -- 72
2019-12-02 11:00:00 18.6 8 Noroeste 18 Noroeste 0 -- -- 82
2019-12-02 10:00:00 18 11 Noroeste 24 Noroeste 0 -- -- 83
2019-12-02 09:00:00 17.4 11 Noroeste 27 Oeste 0 -- -- 84
2019-12-02 08:00:00 17 10 Sudoeste 22 Sudoeste 0 -- -- 77
2019-12-02 07:00:00 16.7 12 Noroeste 19 Noroeste 0 -- -- 86
2019-12-02 06:00:00 16.9 10 Noroeste 19 Noroeste 0 -- -- 87
2019-12-02 05:00:00 16.6 5 Noroeste 13 Oeste 0 -- -- 89
2019-12-02 04:00:00 17.1 7 Norte 13 Noroeste 0 -- -- 81
2019-12-02 03:00:00 16.4 3 Sur 10 Sudoeste 0 -- -- 79
2019-12-02 02:00:00 16.2 4 Sur 8 Sur 0 -- -- 85
2019-12-02 01:00:00 15.8 5 Sudeste 10 Este 0 -- -- 88
2019-12-02 00:00:00 15.2 6 Sudeste 14 Sudeste 0 -- -- 89
2019-12-01 23:00:00 15.2 9 Sudeste 15 Este 0 -- -- 87
2019-12-01 22:00:00 15.2 11 Sudeste 15 Sudeste 0 -- -- 83
2019-12-01 21:00:00 15.6 12 Sudeste 16 Sudeste 0 -- -- 82
2019-12-01 20:00:00 16.1 8 Sudeste 13 Sudeste 0 -- -- 83
2019-12-01 19:00:00 16.5 5 Este 20 Nordeste 0 -- -- 83
2019-12-01 18:00:00 17.6 12 Nordeste 21 Nordeste 0 -- -- 81
2019-12-01 17:00:00 19.2 13 Nordeste 32 Nordeste 0 -- -- 74
2019-12-01 16:00:00 19.8 22 Nordeste 37 Nordeste 0 -- -- 71
2019-12-01 15:00:00 20.3 19 Nordeste 28 Nordeste 0 -- -- 70
2019-12-01 14:00:00 21.2 16 Nordeste 30 Nordeste 0 -- -- 68
2019-12-01 13:00:00 20.9 19 Nordeste 29 Nordeste 0 -- -- 69
2019-12-01 12:00:00 21.2 14 Nordeste 24 Nordeste 0 -- -- 66
2019-12-01 11:00:00 20.1 13 Nordeste 23 Nordeste 0 -- -- 73
2019-12-01 10:00:00 18.5 4 Oeste 17 Sudeste 0 -- -- 76
2019-12-01 09:00:00 15.4 15 Sudeste 20 Sudeste 0 -- -- 69
2019-12-01 08:00:00 13.5 12 Sudeste 17 Sudeste 0 -- -- 83
2019-12-01 07:00:00 14.2 9 Sudeste 12 Sudeste 0 -- -- 89
2019-12-01 06:00:00 14.3 9 Sudeste 13 Sudeste 0 -- -- 82
2019-12-01 05:00:00 13.7 11 Sudeste 15 Sudeste 0 -- -- 78
2019-12-01 04:00:00 14.6 6 Sudeste 17 Sudeste 0 -- -- 80
2019-12-01 03:00:00 14.5 12 Sudeste 16 Sudeste 0 -- -- 88
2019-12-01 02:00:00 15.5 9 Sudeste 13 Sudeste 0 -- -- 87
2019-12-01 01:00:00 15.1 8 Sur 13 Sudeste 0 -- -- 84
2019-12-01 00:00:00 15.3 10 Sudeste 13 Sudeste 0 -- -- 81
2019-11-30 23:00:00 17.1 5 Sur 11 Sur 0 -- -- 89
2019-11-30 22:00:00 16.9 6 Sudeste 10 Sur 0 -- -- 89
2019-11-30 21:00:00 17.8 5 Sur 9 Sur 0 -- -- 92
2019-11-30 20:00:00 17.1 5 Sur 9 Sur 0 -- -- 64
2019-11-30 19:00:00 17.7 4 Sudeste 6 Oeste 0 -- -- 91
2019-11-30 18:00:00 19.6 4 Oeste 10 Oeste 0 -- -- 87
2019-11-30 17:00:00 21.7 6 Oeste 13 Oeste 0 -- -- 78
2019-11-30 16:00:00 22.5 8 Oeste 15 Sudoeste 0 -- -- 76
2019-11-30 15:00:00 22.4 6 Oeste 13 Oeste 0 -- -- 74
2019-11-30 14:00:00 22.5 9 Oeste 14 Oeste 0 -- -- 72
2019-11-30 13:00:00 22 9 Oeste 13 Oeste 0 -- -- 72
2019-11-30 12:00:00 22.5 6 Oeste 12 Oeste 0 -- -- 63
2019-11-30 11:00:00 23 4 Oeste 18 Nordeste 0 -- -- 59
2019-11-30 10:00:00 20.6 0 Calma 21 Sudeste 0 -- -- 71
2019-11-30 09:00:00 19.2 6 Este 10 Oeste 0 -- -- 59
2019-11-30 08:00:00 18.6 5 Oeste 14 Sur 0 -- -- 73
2019-11-30 07:00:00 17.5 3 Nordeste 14 Nordeste 0 -- -- 65
2019-11-30 06:00:00 17.7 4 Oeste 17 Este 0 -- -- 69
2019-11-30 05:00:00 17.2 3 Sudoeste 21 Este 0 -- -- 83
2019-11-30 04:00:00 18.2 7 Sudeste 20 Este 0 -- -- 68
2019-11-30 03:00:00 17.1 5 Sudeste 14 Sur 0 -- -- 58
2019-11-30 02:00:00 18 3 Sur 16 Este 0 -- -- 50
2019-11-30 01:00:00 17.9 6 Sudoeste 14 Sudeste 0 -- -- 60
2019-11-30 00:00:00 16.8 6 Sur 17 Sur 0 -- -- 58
2019-11-29 23:00:00 16.5 7 Sur 14 Sur 0 -- -- 64
2019-11-29 22:00:00 17.1 6 Sudeste 14 Sudeste 0 -- -- 61
2019-11-29 21:00:00 17.7 9 Sudoeste 18 Sudeste 0 -- -- 84
2019-11-29 20:00:00 18.2 5 Sudeste 16 Sudeste 0 -- -- 61
2019-11-29 19:00:00 19 7 Sudoeste 17 Oeste 0 -- -- 77
2019-11-29 18:00:00 19.8 4 Sudoeste 16 Oeste 0 -- -- 84
2019-11-29 17:00:00 23.4 4 Oeste 14 Oeste 0 -- -- 68
2019-11-29 16:00:00 23.8 7 Oeste 14 Noroeste 0 -- -- 65
2019-11-29 15:00:00 22.6 6 Oeste 14 Oeste 0 -- -- 65
2019-11-29 14:00:00 23.9 6 Oeste 17 Oeste 0 -- -- 52
2019-11-29 13:00:00 23.5 8 Oeste 21 Sudoeste 0 -- -- 56
2019-11-29 12:00:00 21.6 8 Oeste 14 Oeste 0 -- -- 64
2019-11-29 11:00:00 20.2 6 Oeste 20 Noroeste 0 -- -- 74
2019-11-29 10:00:00 20.8 10 Nordeste 22 Norte 0 -- -- 58
2019-11-29 09:00:00 19 8 Sudoeste 13 Sudoeste 0 -- -- 57
2019-11-29 08:00:00 16.4 6 Sur 24 Nordeste 0 -- -- 59
2019-11-29 07:00:00 17.4 15 Nordeste 23 Nordeste 0 -- -- 59
2019-11-29 06:00:00 18.6 9 Este 18 Este 0 -- -- 47
2019-11-29 05:00:00 18.8 11 Nordeste 27 Sudeste 0 -- -- 49
2019-11-29 04:00:00 18.5 15 Sudeste 27 Sudeste 0 -- -- 53
2019-11-29 03:00:00 17.8 10 Sudeste 20 Sudeste 0 -- -- 60
2019-11-29 02:00:00 18.2 15 Sudeste 21 Sudeste 0 -- -- 59
2019-11-29 01:00:00 17.5 6 Sudeste 20 Este 0 -- -- 63
2019-11-29 00:00:00 16 5 Sudeste 8 Sudeste 0 -- -- 88
2019-11-28 23:00:00 15.9 4 Sur 6 Sudeste 0 -- -- 91
2019-11-28 22:00:00 16 4 Sur 6 Sudeste 0 -- -- 90
2019-11-28 21:00:00 16.2 6 Este 11 Sudeste 0 -- -- 90
2019-11-28 20:00:00 16.3 8 Sudeste 11 Sudeste 0 -- -- 89
2019-11-28 19:00:00 16.5 5 Sudeste 5 Sudeste 0 -- -- 91
2019-11-28 18:00:00 17.5 0 Calma 8 Sudoeste 0 -- -- 87
2019-11-28 17:00:00 18.4 3 Norte 14 Nordeste 0 -- -- 83
2019-11-28 16:00:00 19.4 5 Noroeste 18 Nordeste 0 -- -- 79
2019-11-28 15:00:00 20 7 Norte 12 Oeste 0 -- -- 76
2019-11-28 14:00:00 20.2 7 Noroeste 12 Noroeste 0 -- -- 76
2019-11-28 13:00:00 21 5 Noroeste 12 Noroeste 0 -- -- 69
2019-11-28 12:00:00 19.9 5 Oeste 12 Sudoeste 0 -- -- 73
2019-11-28 11:00:00 19.2 6 Oeste 12 Sudoeste 0 -- -- 71
2019-11-28 10:00:00 18 6 Sudoeste 25 Este 0 -- -- 76
2019-11-28 09:00:00 15.8 8 Este 16 Sudeste 0 -- -- 85
2019-11-28 08:00:00 13.8 12 Sudeste 16 Sudeste 0 -- -- 89
2019-11-28 07:00:00 13.7 10 Sudeste 14 Sudeste 0 -- -- 89
2019-11-28 06:00:00 13.6 10 Sudeste 17 Sudeste 0 -- -- 90
2019-11-28 05:00:00 13.7 12 Sudeste 15 Sudeste 0 -- -- 91
2019-11-28 04:00:00 13.8 13 Sudeste 19 Sudeste 0 -- -- 89
2019-11-28 03:00:00 14 14 Sudeste 17 Sudeste 0 -- -- 86
2019-11-28 02:00:00 14.3 9 Sudeste 16 Sudeste 0 -- -- 86
2019-11-28 01:00:00 14.4 9 Sur 13 Sur 0 -- -- 85
2019-11-28 00:00:00 14.8 9 Sudeste 13 Sudeste 0 -- -- 86
2019-11-27 23:00:00 15.6 8 Sudeste 13 Sudeste 0 -- -- 84
2019-11-27 22:00:00 15.9 8 Sudeste 12 Nordeste 0 -- -- 87
2019-11-27 21:00:00 16.3 9 Este 14 Este 0 -- -- 88
2019-11-27 20:00:00 16.8 8 Este 17 Este 0 -- -- 85
2019-11-27 19:00:00 17.1 12 Este 16 Este 0 -- -- 84
2019-11-27 18:00:00 17.1 9 Este 18 Nordeste 0 -- -- 84
2019-11-27 17:00:00 18.1 12 Nordeste 22 Nordeste 0 -- -- 79
2019-11-27 16:00:00 18.5 12 Nordeste 27 Nordeste 0 -- -- 80
2019-11-27 15:00:00 19.1 17 Nordeste 26 Nordeste 0 -- -- 79
2019-11-27 14:00:00 19.1 15 Nordeste 27 Nordeste 0 -- -- 80
2019-11-27 13:00:00 19.5 15 Nordeste 27 Nordeste 0 -- -- 77
2019-11-27 05:00:00 -- -- -- -- -- -- -- -- --
2019-11-27 04:00:00 15.3 14 Sudeste 18 Este 0 -- -- 88
2019-11-27 03:00:00 16.7 12 Este 20 Este 0 -- -- 86
2019-11-27 02:00:00 16.9 5 Este 13 Este 0 -- -- 86
2019-11-27 01:00:00 16.6 7 Sudeste 15 Sudeste 0 -- -- 85
2019-11-27 00:00:00 16.6 8 Este 17 Este 0 -- -- 85
2019-11-26 23:00:00 16.9 9 Este 15 Este 0 -- -- 87
2019-11-26 22:00:00 16.3 10 Sudeste 19 Nordeste 0 -- -- 86
2019-11-26 21:00:00 16.9 16 Este 25 Este 0 -- -- 86
2019-11-26 20:00:00 17.1 12 Este 20 Este 0 -- -- 86
2019-11-26 19:00:00 17.1 8 Este 14 Este 0 -- -- 86
2019-11-26 18:00:00 17.1 10 Este 17 Nordeste 0 -- -- 86
2019-11-26 17:00:00 17.9 15 Nordeste 22 Nordeste 0 -- -- 83
2019-11-26 16:00:00 18.5 14 Nordeste 23 Nordeste 0 -- -- 82
2019-11-26 15:00:00 18.5 16 Nordeste 24 Nordeste 0 -- -- 82
2019-11-26 14:00:00 18.7 15 Nordeste 24 Nordeste 0 -- -- 82
2019-11-26 13:00:00 19.5 8 Nordeste 14 Nordeste 0 -- -- 79
2019-11-26 12:00:00 18.9 3 Sudoeste 14 Sudoeste 0 -- -- 71
2019-11-26 11:00:00 19.2 5 Oeste 11 Oeste 0 -- -- 73
2019-11-26 10:00:00 18.6 2 Nordeste 12 Este 0 -- -- 76
2019-11-26 09:00:00 17.1 10 Este 17 Este 0 -- -- 82
2019-11-26 08:00:00 15.1 13 Sudeste 17 Sudeste 0 -- -- 87
2019-11-26 07:00:00 15.3 11 Sudeste 16 Sudeste 0 -- -- 87
2019-11-26 06:00:00 15.2 8 Sur 15 Sudeste 0 -- -- 86
2019-11-26 05:00:00 14.9 10 Sudeste 17 Sudeste 0 -- -- 87
2019-11-26 04:00:00 15.6 9 Sudeste 14 Sudeste 0 -- -- 86
2019-11-26 03:00:00 15.5 10 Sudeste 19 Sudeste 0 -- -- 86
2019-11-26 02:00:00 14.9 9 Sudeste 15 Sudeste 0 -- -- 86
2019-11-26 01:00:00 15.8 8 Sudeste 20 Este 0 -- -- 85
2019-11-26 00:00:00 16.2 7 Sudeste 12 Sudeste 0 -- -- 82
2019-11-25 23:00:00 15.7 9 Sudeste 17 Sudeste 0 -- -- 84
2019-11-25 22:00:00 15.6 12 Sudeste 15 Sudeste 0 -- -- 85
2019-11-25 21:00:00 16.6 10 Este 15 Este 0 -- -- 81
2019-11-25 20:00:00 17.3 10 Este 17 Este 0 -- -- 85
2019-11-25 19:00:00 17.3 8 Este 18 Este 0 -- -- 85
2019-11-25 18:00:00 17.4 14 Este 24 Nordeste 0 -- -- 85
2019-11-25 17:00:00 17.8 10 Nordeste 22 Nordeste 0 -- -- 81
2019-11-25 16:00:00 18.8 14 Nordeste 24 Nordeste 0 -- -- 76
2019-11-25 15:00:00 19.4 12 Nordeste 19 Nordeste 0 -- -- 70
2019-11-25 14:00:00 18.8 11 Nordeste 18 Norte 0 -- -- 76
2019-11-25 13:00:00 19 10 Nordeste 20 Nordeste 0 -- -- 69
2019-11-25 12:00:00 18.6 8 Norte 17 Nordeste 0 -- -- 73
2019-11-25 11:00:00 19.3 6 Nordeste 17 Nordeste 0 -- -- 66
2019-11-25 10:00:00 18.5 6 Nordeste 12 Este 0 -- -- 69
2019-11-25 09:00:00 16.7 8 Sudeste 15 Este 0 -- -- 74
2019-11-25 08:00:00 15.3 13 Este 19 Este 0 -- -- 79
2019-11-25 07:00:00 16.4 10 Este 15 Nordeste 0 -- -- 77
2019-11-25 06:00:00 16.6 7 Sudeste 17 Este 0 -- -- 82
2019-11-25 05:00:00 16.6 9 Este 16 Este 0 -- -- 77
2019-11-25 04:00:00 16.8 8 Este 14 Este 0 -- -- 78
2019-11-25 03:00:00 16.7 9 Este 22 Este 0 -- -- 76
2019-11-25 02:00:00 16.7 12 Este 17 Este 0 -- -- 74
2019-11-25 01:00:00 16.3 9 Sudeste 18 Sudeste 0 -- -- 78
2019-11-25 00:00:00 15.8 11 Este 19 Nordeste 0 -- -- 77
2019-11-24 23:00:00 16.2 11 Este 21 Este 0 -- -- 78
2019-11-24 22:00:00 16.4 11 Este 17 Nordeste 0 -- -- 84
2019-11-24 21:00:00 16.7 6 Sudeste 11 Sudeste 0 -- -- 86
2019-11-24 20:00:00 16.3 4 Sudeste 8 Sudeste 0 -- -- 86
2019-11-24 19:00:00 16.9 4 Sudeste 11 Este 0 -- -- 86
2019-11-24 18:00:00 17.8 5 Nordeste 13 Nordeste 0 -- -- 85
2019-11-24 17:00:00 18.9 11 Este 19 Nordeste 0 -- -- 81
2019-11-24 16:00:00 20.2 13 Nordeste 19 Nordeste 0 -- -- 74
2019-11-24 15:00:00 20.1 13 Nordeste 23 Nordeste 0 -- -- 74
2019-11-24 14:00:00 20 12 Nordeste 22 Nordeste 0 -- -- 82
2019-11-24 13:00:00 20.7 10 Nordeste 17 Nordeste 0 -- -- 81
2019-11-24 12:00:00 18 7 Norte 22 Norte 1 -- -- 95
2019-11-24 11:00:00 18.4 9 Nordeste 15 Nordeste 0 -- -- 86
2019-11-24 10:00:00 17.9 10 Este 15 Nordeste 0 -- -- 92
2019-11-24 09:00:00 17.2 5 Sur 12 Sudeste 0 -- -- 90
2019-11-24 08:00:00 16.2 11 Este 15 Este 0 -- -- 94
2019-11-24 07:00:00 16.1 10 Sudeste 15 Este 0 -- -- 95
2019-11-24 06:00:00 16.6 9 Sudeste 12 Sudeste 0.4 -- -- 95
2019-11-24 05:00:00 16.3 6 Sur 13 Sudeste 0 -- -- 90
2019-11-24 04:00:00 16.9 5 Este 7 Nordeste 0 -- -- 93
2019-11-24 03:00:00 17.6 3 Este 9 Norte 0 -- -- 95
2019-11-24 02:00:00 17.8 3 Sudeste 9 Este 0 -- -- 90
2019-11-24 01:00:00 17.6 8 Este 10 Este 0 -- -- 93
2019-11-24 00:00:00 17.8 8 Sudeste 17 Este 0 -- -- 90
2019-11-23 23:00:00 17.6 9 Sudeste 16 Este 0 -- -- 90
2019-11-23 22:00:00 17.2 12 Este 17 Este 0 -- -- 94
2019-11-23 21:00:00 17.3 12 Este 15 Este 0 -- -- 96
2019-11-23 20:00:00 18.4 6 Nordeste 10 Nordeste 0 -- -- 96
2019-11-23 19:00:00 18.4 2 Este 12 Nordeste 0 -- -- 94
2019-11-23 18:00:00 20.7 4 Este 13 Nordeste 0 -- -- 80
2019-11-23 17:00:00 21.7 8 Norte 15 Norte 0 -- -- 79
2019-11-23 16:00:00 20 8 Noroeste 14 Norte 0 -- -- 83
2019-11-23 15:00:00 21.9 7 Noroeste 13 Oeste 0 -- -- 74
2019-11-23 14:00:00 21.2 7 Noroeste 12 Oeste 0 -- -- 78
2019-11-23 13:00:00 22.4 7 Noroeste 12 Noroeste 0 -- -- 72
2019-11-23 12:00:00 21.1 0 Calma 17 Noroeste 0 -- -- 73
2019-11-23 11:00:00 20.5 5 Noroeste 17 Oeste 0 -- -- 77
2019-11-23 10:00:00 19.7 6 Oeste 16 Oeste 0 -- -- 80
2019-11-23 09:00:00 18.7 3 Sudoeste 13 Sudoeste 0 -- -- 89
2019-11-23 08:00:00 18.2 7 Sudoeste 14 Sudoeste 0 -- -- 93
2019-11-23 07:00:00 17.6 3 Sur 17 Noroeste 1 -- -- 95
2019-11-23 06:00:00 18.2 6 Noroeste 14 Sudoeste 0 -- -- 94
2019-11-23 05:00:00 17.9 8 Sudoeste 15 Sudoeste 0.4 -- -- 96
2019-11-23 04:00:00 18.2 7 Sudoeste 14 Sudoeste 0 -- -- 94
2019-11-23 03:00:00 18.4 6 Sudoeste 15 Sudoeste 0 -- -- 91
2019-11-23 02:00:00 18.3 5 Sudoeste 15 Sudoeste 0 -- -- 89
2019-11-23 01:00:00 18.4 6 Sudoeste 12 Sudoeste 0 -- -- 87
2019-11-23 00:00:00 18.3 2 Sudoeste 10 Sudoeste 0 -- -- 82
2019-11-22 23:00:00 18.2 6 Sudoeste 13 Sudoeste 0 -- -- 83
2019-11-22 22:00:00 18.2 7 Sudoeste 13 Sudoeste 0 -- -- 80
2019-11-22 21:00:00 18.6 7 Sudoeste 14 Sudoeste 0 -- -- 81
2019-11-22 20:00:00 18 6 Sudoeste 14 Sudoeste 0 -- -- 86
2019-11-22 19:00:00 18.3 9 Sudoeste 14 Sudoeste 0 -- -- 86
2019-11-22 18:00:00 19.6 8 Oeste 18 Sudoeste 0 -- -- 81
2019-11-22 17:00:00 20.8 11 Oeste 20 Oeste 0 -- -- 76
2019-11-22 16:00:00 21.8 7 Oeste 13 Oeste 0 -- -- 71
2019-11-22 15:00:00 21.9 7 Oeste 13 Oeste 0 -- -- 70
2019-11-22 14:00:00 21.2 7 Oeste 14 Oeste 0 -- -- 72
2019-11-22 13:00:00 21.4 8 Oeste 15 Oeste 0 -- -- 74
2019-11-22 12:00:00 20.3 8 Sudoeste 13 Sudoeste 0 -- -- 80
2019-11-22 11:00:00 18.9 7 Sudoeste 14 Sudoeste 0 -- -- 87
2019-11-22 10:00:00 17.8 9 Sudoeste 14 Sudoeste 0 -- -- 98
2019-11-22 09:00:00 16.9 7 Sudoeste 14 Sudoeste 0.2 -- -- 100
2019-11-22 08:00:00 16.6 7 Sudoeste 17 Oeste 0.4 -- -- 100
2019-11-22 07:00:00 16.8 4 Sudoeste 15 Sudoeste 0.4 -- -- 100
2019-11-22 06:00:00 16.8 6 Sudoeste 15 Oeste 1 -- -- 100
2019-11-22 05:00:00 16.7 6 Oeste 21 Sudoeste 2 -- -- 100
2019-11-22 04:00:00 17 5 Sudoeste 19 Noroeste 2.8 -- -- 100
2019-11-22 03:00:00 17.9 11 Noroeste 18 Oeste 1 -- -- 100
2019-11-22 02:00:00 17.9 9 Noroeste 24 Noroeste 0.6 -- -- 100
2019-11-22 01:00:00 18.2 5 Oeste 26 Sudoeste 1.4 -- -- 98
2019-11-22 00:00:00 18.3 10 Sudoeste 26 Sudoeste 0 -- -- 96
2019-11-21 23:00:00 18.4 8 Sudoeste 21 Sudoeste 0 -- -- 91
2019-11-21 22:00:00 18.2 13 Sudoeste 28 Oeste 0 -- -- 94
2019-11-21 21:00:00 18.7 8 Sur 18 Sur 0 -- -- 95
2019-11-21 20:00:00 18.4 8 Sudoeste 23 Sudoeste 0 -- -- 92
2019-11-21 19:00:00 18.4 12 Sudoeste 22 Sur 0 -- -- 92
2019-11-21 18:00:00 18.8 10 Sudoeste 24 Sudoeste 0 -- -- 85
2019-11-21 17:00:00 19.4 8 Sudoeste 17 Sudoeste 0 -- -- 72
2019-11-21 16:00:00 21.6 8 Oeste 19 Sudoeste 0 -- -- 66
2019-11-21 15:00:00 21.3 11 Oeste 20 Oeste 0 -- -- 66
2019-11-21 14:00:00 21.7 10 Oeste 21 Oeste 0 -- -- 62
2019-11-21 13:00:00 21.9 8 Oeste 20 Oeste 0 -- -- 60
2019-11-21 12:00:00 21.3 8 Oeste 15 Sudoeste 0 -- -- 56
2019-11-21 11:00:00 19.7 8 Sudoeste 15 Sudoeste 0 -- -- 66
2019-11-21 10:00:00 18.8 7 Sudoeste 22 Oeste 0 -- -- 76
2019-11-21 09:00:00 17.6 7 Sudoeste 15 Sudoeste 0 -- -- 83
2019-11-21 08:00:00 16.9 9 Sudoeste 17 Oeste 0 -- -- 88
2019-11-21 07:00:00 -- -- -- -- -- -- -- -- --
2019-11-21 06:00:00 -- -- -- -- -- -- -- -- --
2019-11-21 05:00:00 -- -- -- -- -- -- -- -- --
2019-11-21 04:00:00 -- -- -- -- -- -- -- -- --
2019-11-21 03:00:00 -- -- -- -- -- -- -- -- --
2019-11-21 02:00:00 -- -- -- -- -- -- -- -- --
2019-11-21 01:00:00 -- -- -- -- -- -- -- -- --
2019-11-21 00:00:00 -- -- -- -- -- -- -- -- --
2019-11-20 23:00:00 -- -- -- -- -- -- -- -- --
2019-11-20 22:00:00 -- -- -- -- -- -- -- -- --
2019-11-20 21:00:00 -- -- -- -- -- -- -- -- --
2019-11-20 20:00:00 -- -- -- -- -- -- -- -- --
2019-11-20 19:00:00 -- -- -- -- -- -- -- -- --
2019-11-20 18:00:00 17.5 7 Noroeste 16 Noroeste 0 -- -- 93
2019-11-20 17:00:00 18.4 12 Noroeste 26 Noroeste 0 -- -- 90
2019-11-20 16:00:00 19.5 8 Noroeste 19 Noroeste 0 -- -- 79
2019-11-20 15:00:00 21 9 Oeste 22 Oeste 0 -- -- 71
2019-11-20 14:00:00 21.1 10 Oeste 19 Oeste 0 -- -- 72
2019-11-20 13:00:00 20.9 8 Oeste 15 Oeste 0 -- -- 73
2019-11-20 12:00:00 20.1 8 Oeste 12 Oeste 0 -- -- 73
2019-11-20 11:00:00 19.1 6 Oeste 13 Sudoeste 0 -- -- 75
2019-11-20 10:00:00 18 9 Sudoeste 14 Sudoeste 0 -- -- 77
2019-11-20 09:00:00 17.1 6 Sudoeste 11 Sudoeste 0 -- -- 77
2019-11-20 08:00:00 15 8 Sur 13 Sur 0 -- -- 79
2019-11-20 07:00:00 14.7 10 Sudeste 13 Sur 0 -- -- 80
2019-11-20 06:00:00 15.1 8 Sur 12 Sur 0 -- -- 81
2019-11-20 05:00:00 15.4 8 Sur 13 Sudoeste 0 -- -- 82
2019-11-20 04:00:00 15.4 8 Sudoeste 17 Sur 0 -- -- 83
2019-11-20 03:00:00 15.3 8 Sur 13 Sur 0 -- -- 80
2019-11-20 02:00:00 14.9 6 Sur 14 Sur 0 -- -- 74
2019-11-20 01:00:00 15.2 7 Sur 13 Sur 0 -- -- 68
2019-11-20 00:00:00 15.1 8 Sur 15 Sur 0 -- -- 68
2019-11-19 23:00:00 15 8 Sur 14 Sur 0 -- -- 73
2019-11-19 22:00:00 15.2 8 Sur 14 Sur 0 -- -- 79
2019-11-19 21:00:00 15.7 7 Sur 13 Sur 0 -- -- 82
2019-11-19 20:00:00 17 4 Sudoeste 9 Oeste 0 -- -- 80
2019-11-19 19:00:00 17.1 4 Sudoeste 14 Oeste 0 -- -- 79
2019-11-19 18:00:00 18.1 7 Noroeste 15 Oeste 0 -- -- 76
2019-11-19 17:00:00 18.9 7 Noroeste 17 Oeste 0 -- -- 73
2019-11-19 16:00:00 18.8 10 Noroeste 17 Oeste 0 -- -- 73
2019-11-19 15:00:00 20.9 10 Oeste 17 Oeste 0 -- -- 68
2019-11-19 14:00:00 20.3 7 Oeste 14 Oeste 0 -- -- 72
2019-11-19 13:00:00 20.6 8 Oeste 15 Noroeste 0 -- -- 69
2019-11-19 12:00:00 20.1 7 Oeste 13 Sudoeste 0 -- -- 69
2019-11-19 11:00:00 19 7 Oeste 14 Oeste 0 -- -- 73
2019-11-19 10:00:00 18 6 Oeste 10 Oeste 0 -- -- 73
2019-11-19 09:00:00 16.3 3 Sur 11 Sur 0 -- -- 82
2019-11-19 08:00:00 14.3 8 Sur 13 Sudeste 0 -- -- 88
2019-11-19 07:00:00 14.5 6 Sur 11 Sudeste 0 -- -- 87
2019-11-19 06:00:00 14.5 7 Sur 11 Sudeste 0 -- -- 88
2019-11-19 05:00:00 15.1 7 Sur 12 Sur 0 -- -- 85
2019-11-19 04:00:00 15.4 6 Sur 12 Sur 0 -- -- 87
2019-11-19 03:00:00 15.3 7 Sur 12 Sudeste 0.4 -- -- 92
2019-11-19 02:00:00 15.8 4 Sudeste 8 Sur 0 -- -- 80
2019-11-19 01:00:00 16 4 Sur 8 Sur 0 -- -- 86
2019-11-19 00:00:00 16.3 4 Norte 10 Norte 0 -- -- 85
2019-11-18 23:00:00 16.6 4 Norte 9 Oeste 0 -- -- 84
2019-11-18 22:00:00 16.5 4 Sudoeste 7 Sudoeste 0 -- -- 81
2019-11-18 21:00:00 15.8 3 Sudeste 8 Sur 0 -- -- 82
2019-11-18 20:00:00 15.3 4 Sudeste 13 Este 0 -- -- 85
2019-11-18 19:00:00 16 9 Este 16 Este 0 -- -- 86
2019-11-18 18:00:00 16.8 14 Este 26 Nordeste 0 -- -- 84
2019-11-18 17:00:00 17.9 13 Nordeste 21 Nordeste 0 -- -- 77
2019-11-18 16:00:00 18 12 Este 34 Nordeste 0 -- -- 78
2019-11-18 15:00:00 20.1 18 Nordeste 32 Nordeste 0 -- -- 70
2019-11-18 14:00:00 19.2 17 Nordeste 26 Nordeste 0 -- -- 78
2019-11-18 13:00:00 19.9 15 Nordeste 24 Nordeste 0 -- -- 64
2019-11-18 12:00:00 21.2 8 Este 19 Nordeste 0 -- -- 54
2019-11-18 11:00:00 18.8 13 Nordeste 18 Nordeste 0 -- -- 71
2019-11-18 10:00:00 18.3 8 Este 14 Este 0 -- -- 70
2019-11-18 09:00:00 15.5 10 Sudeste 16 Sudeste 0 -- -- 80
2019-11-18 08:00:00 15.2 13 Este 24 Este 0 -- -- 81
2019-11-18 07:00:00 15.7 12 Este 24 Nordeste 0 -- -- 87
2019-11-18 06:00:00 15.5 12 Sudeste 21 Este 0 -- -- 73
2019-11-18 05:00:00 16 11 Este 18 Este 0 -- -- 74
2019-11-18 04:00:00 15.9 9 Sudeste 16 Este 0 -- -- 78
2019-11-18 03:00:00 15.7 12 Sudeste 23 Este 0 -- -- 75
2019-11-18 02:00:00 16 10 Este 28 Este 0 -- -- 72
2019-11-18 01:00:00 16.3 14 Este 24 Este 0 -- -- 70
2019-11-18 00:00:00 16.2 11 Este 30 Este 0 -- -- 68
2019-11-17 23:00:00 16.1 12 Este 18 Este 0 -- -- 72
2019-11-17 22:00:00 16.2 12 Este 22 Este 0 -- -- 69
2019-11-17 21:00:00 15.8 9 Este 21 Este 0 -- -- 77
2019-11-17 20:00:00 15.7 12 Este 22 Nordeste 0 -- -- 82
2019-11-17 19:00:00 15.6 14 Nordeste 27 Nordeste 0.2 -- -- 86
2019-11-17 18:00:00 16.7 13 Nordeste 28 Nordeste 0 -- -- 75
2019-11-17 17:00:00 17.4 14 Este 27 Este 0 -- -- 70
2019-11-17 16:00:00 17.6 11 Nordeste 31 Este 0 -- -- 70
2019-11-17 15:00:00 17.5 18 Este 32 Este 0 -- -- 72
2019-11-17 14:00:00 18 11 Nordeste 34 Nordeste 0 -- -- 73
2019-11-17 13:00:00 17.5 22 Nordeste 36 Nordeste 0 -- -- 78
2019-11-17 12:00:00 18.8 12 Este 26 Este 0 -- -- 62
2019-11-17 11:00:00 17 14 Este 27 Nordeste 0 -- -- 76
2019-11-17 10:00:00 16 15 Este 24 Este 0 -- -- 82
2019-11-17 09:00:00 14.8 12 Sudeste 21 Este 0.2 -- -- 89
2019-11-17 08:00:00 14.4 16 Sudeste 30 Este 0 -- -- 88
2019-11-17 07:00:00 14.4 15 Este 25 Este 0 -- -- 91
2019-11-17 06:00:00 14 10 Este 19 Este 1 -- -- 92
2019-11-17 05:00:00 14.1 13 Sudeste 27 Este 0 -- -- 90
2019-11-17 04:00:00 13.9 12 Sudeste 26 Nordeste 1 -- -- 93
2019-11-17 03:00:00 15.1 8 Este 21 Este 0 -- -- 81
2019-11-17 02:00:00 15.6 13 Este 27 Nordeste 0 -- -- 80
2019-11-17 01:00:00 15.9 14 Este 26 Nordeste 0 -- -- 83
2019-11-17 00:00:00 16.2 14 Nordeste 22 Nordeste 0 -- -- 78
2019-11-16 23:00:00 15.5 9 Sudeste 30 Este 0 -- -- 79
2019-11-16 22:00:00 16.1 14 Nordeste 23 Nordeste 0 -- -- 78
2019-11-16 21:00:00 15.2 6 Sudeste 18 Norte 0 -- -- 78
2019-11-16 20:00:00 15.9 12 Nordeste 22 Nordeste 0.2 -- -- 81
2019-11-16 19:00:00 15.7 9 Nordeste 30 Nordeste 0 -- -- 85
2019-11-16 18:00:00 16.8 4 Nordeste 23 Nordeste 0 -- -- 75
2019-11-16 17:00:00 17.2 9 Nordeste 26 Nordeste 0 -- -- 73
2019-11-16 16:00:00 20.2 10 Nordeste 26 Nordeste 0 -- -- 62
2019-11-16 15:00:00 17.5 6 Nordeste 37 Nordeste 0 -- -- 71
2019-11-16 14:00:00 18.1 12 Norte 24 Nordeste 0 -- -- 76
2019-11-16 13:00:00 18 11 Norte 21 Norte 0 -- -- 68
2019-11-16 12:00:00 18.5 12 Norte 26 Norte 0 -- -- 63
2019-11-16 11:00:00 17.9 14 Nordeste 27 Nordeste 0 -- -- 65
2019-11-16 10:00:00 17.4 14 Nordeste 25 Nordeste 0 -- -- 64
2019-11-16 09:00:00 15.7 12 Nordeste 24 Nordeste 0 -- -- 71
2019-11-16 08:00:00 15.9 11 Nordeste 26 Norte 0 -- -- 71
2019-11-16 07:00:00 15.9 13 Nordeste 27 Noroeste 0 -- -- 67
2019-11-16 06:00:00 15.7 11 Norte 23 Nordeste 0 -- -- 82
2019-11-16 05:00:00 15.1 9 Norte 26 Nordeste 0 -- -- 87
2019-11-16 04:00:00 15.6 10 Nordeste 31 Nordeste 0 -- -- 75
2019-11-16 03:00:00 15.5 8 Norte 26 Nordeste 0.2 -- -- 84
2019-11-16 02:00:00 15.1 15 Nordeste 31 Nordeste 0 -- -- 90
2019-11-16 01:00:00 15.6 3 Nordeste 27 Norte 0 -- -- 80
2019-11-16 00:00:00 15.7 6 Este 37 Nordeste 0 -- -- 79